Time;durP1;ratioP1;P1;durP2;ratioP2;P2;SDS_P1;SDS_P2;PMS_P1;PMS_P2;Temp;Humidity;BMP_temperature;BMP_pressure;BME280_temperature;BME280_humidity;BME280_pressure;Samples;Min_cycle;Max_cycle;Signal;HPM_P1;HPM_P2
2022/03/30 00:01:08;;;;;;;21.00;11.80;;;;;;;;;;4770976;30;20055;-89
2022/03/30 00:03:34;;;;;;;15.68;11.43;;;;;;;;;;4772241;30;20060;-88
2022/03/30 00:06:00;;;;;;;15.70;11.57;;;;;;;;;;4792411;29;20047;-90
2022/03/30 00:08:26;;;;;;;17.30;11.40;;;;;;;;;;4788394;29;20128;-91
2022/03/30 00:10:52;;;;;;;18.88;11.65;;;;;;;;;;4791875;29;20051;-92
2022/03/30 00:13:18;;;;;;;15.07;11.48;;;;;;;;;;4797186;29;20073;-91
2022/03/30 00:15:44;;;;;;;18.65;11.45;;;;;;;;;;4788690;29;20410;-91
2022/03/30 00:18:11;;;;;;;16.10;12.15;;;;;;;;;;4793405;29;20054;-88
2022/03/30 00:20:37;;;;;;;17.73;12.05;;;;;;;;;;4805461;29;20421;-91
2022/03/30 00:23:03;;;;;;;15.88;11.63;;;;;;;;;;4793375;29;20200;-91
2022/03/30 00:25:29;;;;;;;17.50;12.23;;;;;;;;;;4790762;29;20055;-92
2022/03/30 00:27:55;;;;;;;16.30;11.95;;;;;;;;;;4793455;29;20558;-91
2022/03/30 00:30:22;;;;;;;18.27;12.13;;;;;;;;;;4795415;29;20047;-92
2022/03/30 00:32:48;;;;;;;17.35;12.63;;;;;;;;;;4777459;30;20142;-92
2022/03/30 00:35:14;;;;;;;18.17;12.70;;;;;;;;;;4777214;29;20047;-91
2022/03/30 00:37:40;;;;;;;15.80;12.27;;;;;;;;;;4774196;29;20043;-90
2022/03/30 00:40:08;;;;;;;14.25;11.25;;;;;;;;;;4785932;29;20517;-90
2022/03/30 00:42:34;;;;;;;13.73;9.57;;;;;;;;;;4804430;29;20066;-89
2022/03/30 00:45:08;;;;;;;10.40;8.07;;;;;;;;;;4805438;29;20050;-90
2022/03/30 00:47:34;;;;;;;12.68;7.90;;;;;;;;;;4792472;29;20133;-87
2022/03/30 00:50:00;;;;;;;7.45;6.13;;;;;;;;;;4814619;29;20468;-90
2022/03/30 00:52:26;;;;;;;7.32;5.47;;;;;;;;;;4790524;29;20126;-91
2022/03/30 00:54:52;;;;;;;7.97;5.05;;;;;;;;;;4792306;29;20503;-91
2022/03/30 00:57:22;;;;;;;7.75;4.78;;;;;;;;;;4808165;29;20102;-92
2022/03/30 00:59:48;;;;;;;9.98;5.18;;;;;;;;;;4791381;29;20476;-90
2022/03/30 01:02:15;;;;;;;7.97;5.03;;;;;;;;;;4787518;29;20099;-91
2022/03/30 01:04:41;;;;;;;5.80;4.40;;;;;;;;;;4813205;29;20058;-90
2022/03/30 01:07:07;;;;;;;6.68;4.50;;;;;;;;;;4813045;29;20145;-91
2022/03/30 01:09:36;;;;;;;6.75;4.47;;;;;;;;;;4792380;29;20078;-92
2022/03/30 01:12:03;;;;;;;10.43;4.50;;;;;;;;;;4789527;29;20080;-92
2022/03/30 01:14:30;;;;;;;6.90;4.40;;;;;;;;;;4805653;29;20035;-91
2022/03/30 01:16:56;;;;;;;7.15;4.20;;;;;;;;;;4790489;29;20192;-92
2022/03/30 01:19:22;;;;;;;6.78;4.10;;;;;;;;;;4821631;29;20100;-90
2022/03/30 01:21:48;;;;;;;6.13;3.97;;;;;;;;;;4824096;29;20054;-91
2022/03/30 01:24:14;;;;;;;6.22;4.10;;;;;;;;;;4817389;29;20051;-92
2022/03/30 01:26:41;;;;;;;6.30;4.20;;;;;;;;;;4790808;29;20050;-91
2022/03/30 01:34:38;;;;;;;6.47;4.03;;;;;;;;;;4809057;29;20158;-90
2022/03/30 01:37:07;;;;;;;4.85;3.42;;;;;;;;;;4789954;29;20404;-91
2022/03/30 01:39:33;;;;;;;4.13;3.30;;;;;;;;;;4791264;29;20058;-90
2022/03/30 01:41:59;;;;;;;4.43;3.40;;;;;;;;;;4805196;29;20054;-91
2022/03/30 01:44:25;;;;;;;4.60;3.78;;;;;;;;;;4809325;29;20078;-91
2022/03/30 01:46:52;;;;;;;4.18;3.10;;;;;;;;;;4791013;29;20058;-90
2022/03/30 01:49:21;;;;;;;4.20;3.33;;;;;;;;;;4807941;29;20089;-91
2022/03/30 01:51:54;;;;;;;3.20;2.83;;;;;;;;;;4808799;29;20145;-91
2022/03/30 01:54:20;;;;;;;;;;;;;;;;;;4804337;29;20042;-92
2022/03/30 01:56:47;;;;;;;5.03;3.05;;;;;;;;;;4791992;29;20305;-91
2022/03/30 01:59:13;;;;;;;5.93;2.85;;;;;;;;;;4808903;29;20133;-91
2022/03/30 02:01:40;;;;;;;3.70;2.30;;;;;;;;;;4790425;29;20500;-91
2022/03/30 02:04:07;;;;;;;5.68;2.47;;;;;;;;;;4809429;29;20053;-90
2022/03/30 02:06:34;;;;;;;5.75;2.53;;;;;;;;;;4789480;29;20099;-90
2022/03/30 02:09:00;;;;;;;4.47;2.30;;;;;;;;;;4794889;29;20050;-90
2022/03/30 02:11:26;;;;;;;5.80;2.45;;;;;;;;;;4807184;29;20085;-90
2022/03/30 02:13:52;;;;;;;3.97;1.80;;;;;;;;;;4784264;29;20477;-91
2022/03/30 02:16:19;;;;;;;2.80;1.90;;;;;;;;;;4787943;29;20450;-90
2022/03/30 02:18:45;;;;;;;3.55;2.13;;;;;;;;;;4786427;29;20508;-92
2022/03/30 02:21:11;;;;;;;2.85;1.80;;;;;;;;;;4807644;29;20110;-91
2022/03/30 02:23:38;;;;;;;5.28;1.70;;;;;;;;;;4790468;29;20066;-91
2022/03/30 02:26:04;;;;;;;2.63;1.80;;;;;;;;;;4792719;29;20088;-90
2022/03/30 02:28:30;;;;;;;6.45;2.00;;;;;;;;;;4790100;29;20046;-88
2022/03/30 02:30:56;;;;;;;3.30;1.80;;;;;;;;;;4798473;29;20064;-91
2022/03/30 02:33:23;;;;;;;1.85;1.50;;;;;;;;;;4795700;29;20508;-91
2022/03/30 02:35:49;;;;;;;1.60;1.50;;;;;;;;;;4810011;29;20038;-90
2022/03/30 02:38:15;;;;;;;2.10;1.50;;;;;;;;;;4825299;29;20062;-91
2022/03/30 02:40:41;;;;;;;1.92;1.50;;;;;;;;;;4807338;29;20046;-91
2022/03/30 02:43:09;;;;;;;1.73;1.30;;;;;;;;;;4807889;29;20058;-90
2022/03/30 02:45:35;;;;;;;2.72;1.20;;;;;;;;;;4790110;29;20138;-91
2022/03/30 02:48:19;;;;;;;1.33;1.23;;;;;;;;;;4792113;29;20059;-91
2022/03/30 02:50:45;;;;;;;1.35;1.25;;;;;;;;;;4808051;29;20050;-92
2022/03/30 02:53:12;;;;;;;1.30;1.20;;;;;;;;;;4791680;29;20252;-91
2022/03/30 02:55:38;;;;;;;2.05;1.20;;;;;;;;;;4823105;29;20094;-90
2022/03/30 02:58:04;;;;;;;1.30;1.20;;;;;;;;;;4811412;29;20062;-90
2022/03/30 03:00:31;;;;;;;1.30;1.20;;;;;;;;;;4807618;29;20076;-90
2022/03/30 03:02:57;;;;;;;1.20;1.10;;;;;;;;;;4815365;29;20205;-90
2022/03/30 03:05:23;;;;;;;1.30;1.20;;;;;;;;;;4807814;29;20047;-90
2022/03/30 03:07:50;;;;;;;1.15;1.05;;;;;;;;;;4805981;29;20047;-92
2022/03/30 03:10:16;;;;;;;2.15;1.40;;;;;;;;;;4788268;29;20051;-92
2022/03/30 03:12:42;;;;;;;1.55;1.10;;;;;;;;;;4790102;29;20112;-91
2022/03/30 03:15:08;;;;;;;2.17;1.23;;;;;;;;;;4789267;29;20055;-90
2022/03/30 03:17:34;;;;;;;2.05;1.50;;;;;;;;;;4803308;29;20065;-88
2022/03/30 03:20:00;;;;;;;1.65;1.55;;;;;;;;;;4806158;29;20400;-90
2022/03/30 03:22:26;;;;;;;1.60;1.50;;;;;;;;;;4815263;29;20051;-91
2022/03/30 03:24:52;;;;;;;1.55;1.40;;;;;;;;;;4812019;29;20741;-90
2022/03/30 03:27:18;;;;;;;1.45;1.35;;;;;;;;;;4810350;29;20043;-90
2022/03/30 03:29:45;;;;;;;2.13;1.42;;;;;;;;;;4805747;29;20039;-90
2022/03/30 03:32:11;;;;;;;1.48;1.20;;;;;;;;;;4789273;29;20094;-90
2022/03/30 03:34:37;;;;;;;1.70;1.33;;;;;;;;;;4804764;29;20055;-90
2022/03/30 03:37:03;;;;;;;1.42;1.30;;;;;;;;;;4805499;29;20061;-91
2022/03/30 03:39:30;;;;;;;1.50;1.40;;;;;;;;;;4792894;29;20058;-90
2022/03/30 03:41:56;;;;;;;1.40;1.30;;;;;;;;;;4797628;29;20062;-91
2022/03/30 03:44:22;;;;;;;2.45;1.50;;;;;;;;;;4799711;29;20549;-90
2022/03/30 03:46:49;;;;;;;1.48;1.38;;;;;;;;;;4809615;29;20070;-89
2022/03/30 03:49:15;;;;;;;3.35;1.63;;;;;;;;;;4794634;29;20131;-91
2022/03/30 03:51:41;;;;;;;1.58;1.48;;;;;;;;;;4809846;29;20055;-90
2022/03/30 03:54:07;;;;;;;2.45;1.45;;;;;;;;;;4811813;29;20054;-90
2022/03/30 03:56:33;;;;;;;1.67;1.50;;;;;;;;;;4809689;29;20106;-90
2022/03/30 03:59:00;;;;;;;2.47;1.30;;;;;;;;;;4811128;29;20393;-90
2022/03/30 04:01:27;;;;;;;2.97;1.50;;;;;;;;;;4790434;29;20054;-83
2022/03/30 04:03:53;;;;;;;2.10;1.50;;;;;;;;;;4795610;29;20066;-89
2022/03/30 04:06:20;;;;;;;1.73;1.50;;;;;;;;;;4798110;29;20031;-89
2022/03/30 04:08:54;;;;;;;1.70;1.60;;;;;;;;;;4815835;29;20059;-91
2022/03/30 04:11:20;;;;;;;2.85;1.60;;;;;;;;;;4806257;29;20539;-91
2022/03/30 04:13:46;;;;;;;3.22;1.50;;;;;;;;;;4810821;29;20043;-90
2022/03/30 04:16:12;;;;;;;1.63;1.50;;;;;;;;;;4806376;29;20054;-90
2022/03/30 04:18:38;;;;;;;2.08;1.52;;;;;;;;;;4805869;29;20046;-91
2022/03/30 04:21:04;;;;;;;2.10;1.50;;;;;;;;;;4806205;29;20089;-89
2022/03/30 04:23:32;;;;;;;4.32;1.50;;;;;;;;;;4789477;29;20144;-91
2022/03/30 04:25:58;;;;;;;3.25;1.50;;;;;;;;;;4808016;29;20088;-91
2022/03/30 04:28:24;;;;;;;1.70;1.60;;;;;;;;;;4808775;29;20082;-91
2022/03/30 04:30:50;;;;;;;2.05;1.73;;;;;;;;;;4808548;29;20114;-91
2022/03/30 04:33:16;;;;;;;2.67;1.80;;;;;;;;;;4789094;29;20053;-90
2022/03/30 04:35:42;;;;;;;3.17;2.00;;;;;;;;;;4787180;29;20184;-90
2022/03/30 04:38:10;;;;;;;3.38;1.80;;;;;;;;;;4807528;29;20074;-91
2022/03/30 04:40:38;;;;;;;2.28;2.00;;;;;;;;;;4802322;29;20051;-90
2022/03/30 04:43:04;;;;;;;1.80;1.70;;;;;;;;;;4791262;29;20069;-90
2022/03/30 04:45:30;;;;;;;2.03;1.88;;;;;;;;;;4793836;29;20062;-90
2022/03/30 04:47:57;;;;;;;2.70;1.90;;;;;;;;;;4806150;29;20047;-91
2022/03/30 04:50:24;;;;;;;2.05;1.75;;;;;;;;;;4793943;29;20490;-90
2022/03/30 04:52:51;;;;;;;1.92;1.75;;;;;;;;;;4808508;29;20058;-90
2022/03/30 04:55:19;;;;;;;2.60;1.75;;;;;;;;;;4805844;29;20404;-91
2022/03/30 04:57:45;;;;;;;2.13;1.80;;;;;;;;;;4791373;29;20560;-90
2022/03/30 05:00:11;;;;;;;2.53;1.77;;;;;;;;;;4808481;29;20062;-90
2022/03/30 05:02:38;;;;;;;4.22;1.90;;;;;;;;;;4791451;29;20110;-91
2022/03/30 05:05:05;;;;;;;2.22;1.90;;;;;;;;;;4807175;29;20133;-89
2022/03/30 05:07:31;;;;;;;2.15;1.70;;;;;;;;;;4788181;29;20122;-91
2022/03/30 05:10:00;;;;;;;2.08;1.70;;;;;;;;;;4798416;29;20090;-91
2022/03/30 05:12:26;;;;;;;2.53;1.73;;;;;;;;;;4808402;29;20051;-92
2022/03/30 05:14:52;;;;;;;5.10;1.98;;;;;;;;;;4792059;29;20590;-89
2022/03/30 05:17:18;;;;;;;3.70;1.70;;;;;;;;;;4806471;29;20035;-89
2022/03/30 05:19:44;;;;;;;2.00;1.70;;;;;;;;;;4808899;29;20057;-91
2022/03/30 05:22:11;;;;;;;2.50;1.80;;;;;;;;;;4792483;29;20082;-90
2022/03/30 05:24:40;;;;;;;3.38;2.10;;;;;;;;;;4812530;29;20059;-88
2022/03/30 05:27:06;;;;;;;3.08;1.83;;;;;;;;;;4803264;29;20050;-88
2022/03/30 05:29:32;;;;;;;4.03;1.80;;;;;;;;;;4796041;29;20058;-87
2022/03/30 05:31:58;;;;;;;2.42;1.70;;;;;;;;;;4790682;29;20050;-90
2022/03/30 05:34:24;;;;;;;4.10;2.00;;;;;;;;;;4788300;29;20043;-89
2022/03/30 05:36:51;;;;;;;2.45;1.80;;;;;;;;;;4805766;29;20066;-90
2022/03/30 05:39:17;;;;;;;2.72;1.70;;;;;;;;;;4805945;29;20457;-90
2022/03/30 05:41:43;;;;;;;2.85;1.73;;;;;;;;;;4792119;29;20054;-89
2022/03/30 05:44:09;;;;;;;2.95;1.75;;;;;;;;;;4809451;29;20487;-90
2022/03/30 05:46:36;;;;;;;3.03;2.10;;;;;;;;;;4790367;29;20122;-91
2022/03/30 05:49:03;;;;;;;3.40;1.95;;;;;;;;;;4791515;29;21566;-92
2022/03/30 05:51:30;;;;;;;4.10;1.70;;;;;;;;;;4805746;29;20057;-87
2022/03/30 05:53:56;;;;;;;3.00;1.90;;;;;;;;;;4789973;29;20118;-91
2022/03/30 05:57:00;;;;;;;5.03;1.85;;;;;;;;;;4809245;29;20074;-83
2022/03/30 05:59:09;;;;;;;2.65;1.50;;;;;;;;;;4811170;29;20039;-88
2022/03/30 06:01:36;;;;;;;4.57;1.63;;;;;;;;;;4806951;29;20087;-91
2022/03/30 06:04:02;;;;;;;4.88;1.73;;;;;;;;;;4800699;29;20054;-85
2022/03/30 06:06:28;;;;;;;4.50;2.30;;;;;;;;;;4803462;29;20051;-82
2022/03/30 06:08:54;;;;;;;4.93;2.58;;;;;;;;;;4808290;29;20059;-86
2022/03/30 06:11:20;;;;;;;4.47;2.65;;;;;;;;;;4805822;29;20050;-86
2022/03/30 06:13:46;;;;;;;5.55;2.00;;;;;;;;;;4789817;29;20057;-86
2022/03/30 06:16:14;;;;;;;3.97;1.55;;;;;;;;;;4802947;29;20455;-86
2022/03/30 06:18:40;;;;;;;5.07;2.08;;;;;;;;;;4805966;29;20074;-86
2022/03/30 06:21:06;;;;;;;6.43;1.95;;;;;;;;;;4805248;29;20047;-84
2022/03/30 06:23:32;;;;;;;5.75;2.20;;;;;;;;;;4804195;29;20115;-86
2022/03/30 06:25:58;;;;;;;5.03;2.28;;;;;;;;;;4788673;29;20141;-86
2022/03/30 06:28:26;;;;;;;2.85;2.30;;;;;;;;;;4803157;29;20130;-85
2022/03/30 06:30:53;;;;;;;4.10;2.30;;;;;;;;;;4804415;29;20116;-86
2022/03/30 06:33:19;;;;;;;4.68;2.50;;;;;;;;;;4803556;29;20055;-85
2022/03/30 06:35:45;;;;;;;2.80;2.20;;;;;;;;;;4804104;29;20050;-85
2022/03/30 06:38:11;;;;;;;2.78;2.05;;;;;;;;;;4787778;29;20100;-85
2022/03/30 06:40:37;;;;;;;3.38;1.83;;;;;;;;;;4806755;29;20479;-86
2022/03/30 06:43:04;;;;;;;3.38;1.70;;;;;;;;;;4792240;29;20062;-85
2022/03/30 06:45:30;;;;;;;3.17;1.52;;;;;;;;;;4804257;29;20116;-85
2022/03/30 06:47:56;;;;;;;4.57;1.75;;;;;;;;;;4792098;29;20050;-85
2022/03/30 06:50:23;;;;;;;4.32;1.98;;;;;;;;;;4809832;29;20110;-85
2022/03/30 06:52:49;;;;;;;2.85;1.70;;;;;;;;;;4804833;29;20047;-84
2022/03/30 06:55:15;;;;;;;2.85;1.70;;;;;;;;;;4805515;29;20146;-86
2022/03/30 06:57:42;;;;;;;5.38;1.80;;;;;;;;;;4805245;29;20130;-85
2022/03/30 07:00:12;;;;;;;5.28;1.90;;;;;;;;;;4804023;29;20043;-85
2022/03/30 07:02:38;;;;;;;3.25;1.73;;;;;;;;;;4803266;29;20085;-85
2022/03/30 07:05:04;;;;;;;4.95;1.70;;;;;;;;;;4786734;29;20559;-84
2022/03/30 07:10:15;;;;;;;2.42;1.60;;;;;;;;;;4785856;29;20055;-86
2022/03/30 07:12:41;;;;;;;3.75;1.90;;;;;;;;;;4807480;29;20381;-86
2022/03/30 07:15:08;;;;;;;4.00;1.98;;;;;;;;;;4813931;29;20043;-84
2022/03/30 07:17:37;;;;;;;6.00;1.80;;;;;;;;;;4816969;29;20134;-85
2022/03/30 07:20:05;;;;;;;4.18;1.60;;;;;;;;;;4798864;29;20082;-86
2022/03/30 07:22:31;;;;;;;4.47;1.40;;;;;;;;;;4809224;29;20046;-86
2022/03/30 07:24:57;;;;;;;2.42;1.58;;;;;;;;;;4792460;29;20047;-85
2022/03/30 07:27:23;;;;;;;4.68;1.70;;;;;;;;;;4808595;29;20125;-85
2022/03/30 07:29:49;;;;;;;4.15;1.50;;;;;;;;;;4807846;29;20380;-85
2022/03/30 07:32:15;;;;;;;1.50;1.30;;;;;;;;;;4798281;29;20053;-87
2022/03/30 07:34:41;;;;;;;3.70;1.35;;;;;;;;;;4808402;29;20056;-87
2022/03/30 07:37:07;;;;;;;2.22;1.48;;;;;;;;;;4808276;29;20545;-87
2022/03/30 07:39:33;;;;;;;2.33;1.23;;;;;;;;;;4792472;29;20050;-87
2022/03/30 07:41:59;;;;;;;2.60;1.50;;;;;;;;;;4792264;29;20050;-86
2022/03/30 07:44:26;;;;;;;4.97;1.60;;;;;;;;;;4794112;29;20568;-86
2022/03/30 07:46:52;;;;;;;5.07;1.42;;;;;;;;;;4798035;29;20062;-86
2022/03/30 07:49:18;;;;;;;4.15;1.70;;;;;;;;;;4805288;29;20074;-87
2022/03/30 07:51:44;;;;;;;1.90;1.20;;;;;;;;;;4810553;29;20512;-86
2022/03/30 07:54:10;;;;;;;5.43;2.05;;;;;;;;;;4794008;29;20468;-86
2022/03/30 07:56:37;;;;;;;2.78;1.48;;;;;;;;;;4794369;29;20055;-85
2022/03/30 07:59:03;;;;;;;2.15;1.42;;;;;;;;;;4809951;29;20061;-85
2022/03/30 08:01:29;;;;;;;2.17;1.38;;;;;;;;;;4797290;29;20515;-85
2022/03/30 08:03:56;;;;;;;2.72;1.50;;;;;;;;;;4790702;29;20056;-85
2022/03/30 08:06:22;;;;;;;5.72;1.45;;;;;;;;;;4785504;29;20058;-84
2022/03/30 08:08:48;;;;;;;3.22;1.83;;;;;;;;;;4807494;29;20057;-86
2022/03/30 08:11:14;;;;;;;2.92;1.60;;;;;;;;;;4792506;29;20047;-86
2022/03/30 08:13:40;;;;;;;6.00;2.28;;;;;;;;;;4791702;29;20061;-85
2022/03/30 08:16:06;;;;;;;2.58;1.55;;;;;;;;;;4799590;29;20405;-86
2022/03/30 08:18:32;;;;;;;2.55;1.50;;;;;;;;;;4794442;29;20111;-85
2022/03/30 08:23:43;;;;;;;2.10;1.45;;;;;;;;;;4791399;29;20051;-86
2022/03/30 08:26:11;;;;;;;2.15;1.40;;;;;;;;;;4790282;29;20043;-85
2022/03/30 08:28:37;;;;;;;5.18;2.00;;;;;;;;;;4824934;29;20051;-93
2022/03/30 08:31:03;;;;;;;2.42;1.60;;;;;;;;;;4825683;29;20042;-90
2022/03/30 08:33:29;;;;;;;3.78;1.70;;;;;;;;;;4825545;29;20046;-95
2022/03/30 08:35:55;;;;;;;1.55;1.42;;;;;;;;;;4797596;29;20043;-94
2022/03/30 08:38:21;;;;;;;3.92;1.50;;;;;;;;;;4813112;29;20042;-95
2022/03/30 08:40:47;;;;;;;1.67;1.55;;;;;;;;;;4794391;29;20107;-91
2022/03/30 08:43:13;;;;;;;4.72;1.60;;;;;;;;;;4796009;29;20055;-92
2022/03/30 08:45:41;;;;;;;2.38;1.80;;;;;;;;;;4797144;29;20118;-93
2022/03/30 08:48:07;;;;;;;4.22;1.65;;;;;;;;;;4810761;29;20484;-89
2022/03/30 08:50:33;;;;;;;1.63;1.50;;;;;;;;;;4814519;29;20057;-92
2022/03/30 08:53:02;;;;;;;2.95;1.70;;;;;;;;;;4819458;29;20047;-92
2022/03/30 08:55:28;;;;;;;2.63;1.42;;;;;;;;;;4798533;29;20094;-92
2022/03/30 08:57:55;;;;;;;1.92;1.40;;;;;;;;;;4810922;29;20082;-91
2022/03/30 09:00:21;;;;;;;3.28;1.40;;;;;;;;;;4817130;29;20034;-92
2022/03/30 09:03:01;;;;;;;2.70;1.35;;;;;;;;;;4817223;29;20057;-90
2022/03/30 09:05:30;;;;;;;3.35;1.67;;;;;;;;;;4795732;29;20077;-91
2022/03/30 09:08:07;;;;;;;3.00;1.70;;;;;;;;;;4802784;29;20122;-86
2022/03/30 09:10:35;;;;;;;6.22;2.05;;;;;;;;;;4806906;29;20091;-85
2022/03/30 09:13:01;;;;;;;3.65;1.67;;;;;;;;;;4806629;29;20038;-86
2022/03/30 09:15:28;;;;;;;3.05;1.52;;;;;;;;;;4806590;29;20058;-86
2022/03/30 09:17:59;;;;;;;3.35;1.60;;;;;;;;;;4811244;29;20057;-84
2022/03/30 09:20:25;;;;;;;5.85;1.70;;;;;;;;;;4791677;29;20082;-84
2022/03/30 09:22:55;;;;;;;2.55;1.42;;;;;;;;;;4815898;29;20090;-85
2022/03/30 09:25:25;;;;;;;2.35;1.40;;;;;;;;;;4810518;29;20082;-86
2022/03/30 09:27:52;;;;;;;3.40;1.40;;;;;;;;;;4806853;29;20053;-86
2022/03/30 09:30:19;;;;;;;3.35;1.50;;;;;;;;;;4788702;29;20051;-86
2022/03/30 09:32:47;;;;;;;3.70;1.80;;;;;;;;;;4807248;29;20043;-87
2022/03/30 09:35:25;;;;;;;3.17;1.70;;;;;;;;;;4790904;29;20054;-86
2022/03/30 09:38:08;;;;;;;2.17;1.40;;;;;;;;;;4786500;29;20052;-87
2022/03/30 09:40:43;;;;;;;1.85;1.40;;;;;;;;;;4788848;29;20055;-86
2022/03/30 09:43:17;;;;;;;2.53;1.50;;;;;;;;;;4788978;29;20067;-86
2022/03/30 09:45:43;;;;;;;5.13;1.42;;;;;;;;;;4776946;30;20377;-86
2022/03/30 09:48:10;;;;;;;3.40;1.55;;;;;;;;;;4775528;29;20065;-86
2022/03/30 09:50:41;;;;;;;2.15;1.35;;;;;;;;;;4773216;30;20447;-86
2022/03/30 09:53:11;;;;;;;1.85;1.30;;;;;;;;;;4790219;30;20143;-86
2022/03/30 09:55:37;;;;;;;3.75;1.85;;;;;;;;;;4790232;30;20055;-86
2022/03/30 09:58:07;;;;;;;2.05;1.33;;;;;;;;;;4768592;30;20047;-86
2022/03/30 10:00:33;;;;;;;2.40;1.30;;;;;;;;;;4772056;30;20107;-85
2022/03/30 10:02:59;;;;;;;2.63;1.20;;;;;;;;;;4756238;30;20451;-84
2022/03/30 10:05:25;;;;;;;1.52;1.40;;;;;;;;;;4788927;29;20053;-85
2022/03/30 10:07:52;;;;;;;2.70;1.35;;;;;;;;;;4787055;30;20052;-86
2022/03/30 10:10:22;;;;;;;2.92;1.40;;;;;;;;;;4787293;29;20059;-86
2022/03/30 10:12:48;;;;;;;1.88;1.20;;;;;;;;;;4767947;30;20051;-86
2022/03/30 10:15:14;;;;;;;2.65;1.20;;;;;;;;;;4784407;29;20048;-85
2022/03/30 10:17:40;;;;;;;3.13;1.35;;;;;;;;;;4787254;29;20055;-85
2022/03/30 10:20:07;;;;;;;1.75;1.30;;;;;;;;;;4787223;30;20126;-85
2022/03/30 10:22:34;;;;;;;2.15;1.20;;;;;;;;;;4769044;29;20062;-86
2022/03/30 10:25:06;;;;;;;1.55;1.20;;;;;;;;;;4788130;29;20051;-85
2022/03/30 10:27:50;;;;;;;1.40;1.25;;;;;;;;;;4787633;29;20496;-86
2022/03/30 10:30:22;;;;;;;2.50;1.20;;;;;;;;;;4791428;29;20124;-86
2022/03/30 10:32:54;;;;;;;1.30;1.20;;;;;;;;;;4790809;29;20039;-87
2022/03/30 10:35:20;;;;;;;2.45;1.30;;;;;;;;;;4772188;30;20062;-87
2022/03/30 10:37:58;;;;;;;2.17;1.40;;;;;;;;;;4776726;30;20124;-87
2022/03/30 10:40:27;;;;;;;1.90;1.30;;;;;;;;;;4787826;30;20052;-87
2022/03/30 10:42:54;;;;;;;2.47;1.15;;;;;;;;;;4804606;29;20512;-87
2022/03/30 10:45:29;;;;;;;2.53;1.30;;;;;;;;;;4802417;29;20086;-86
2022/03/30 10:48:12;;;;;;;2.60;1.63;;;;;;;;;;4798788;29;20047;-87
2022/03/30 10:50:41;;;;;;;1.75;1.40;;;;;;;;;;4788367;29;20503;-86
2022/03/30 10:53:33;;;;;;;1.23;1.13;;;;;;;;;;4802448;29;20057;-85
2022/03/30 10:56:06;;;;;;;2.60;1.50;;;;;;;;;;4797811;29;20062;-87
2022/03/30 10:58:32;;;;;;;3.08;1.60;;;;;;;;;;4803845;29;20051;-87
2022/03/30 11:01:14;;;;;;;3.97;1.83;;;;;;;;;;4787100;29;20090;-86
2022/03/30 11:03:56;;;;;;;3.58;1.40;;;;;;;;;;4785630;29;20055;-87
2022/03/30 11:06:22;;;;;;;2.80;1.77;;;;;;;;;;4802442;29;20085;-86
2022/03/30 11:08:51;;;;;;;2.58;1.80;;;;;;;;;;4801134;29;20070;-86
2022/03/30 11:11:20;;;;;;;3.50;1.60;;;;;;;;;;4789823;29;20056;-87
2022/03/30 11:13:46;;;;;;;3.90;1.60;;;;;;;;;;4804653;29;20127;-86
2022/03/30 11:16:13;;;;;;;4.05;1.98;;;;;;;;;;4797273;29;20098;-86
2022/03/30 11:18:56;;;;;;;3.83;1.33;;;;;;;;;;4790140;29;20054;-87
2022/03/30 11:21:22;;;;;;;4.57;2.30;;;;;;;;;;4788451;29;20115;-86
2022/03/30 11:23:58;;;;;;;2.72;1.50;;;;;;;;;;4787099;29;20472;-87
2022/03/30 11:26:25;;;;;;;2.33;1.40;;;;;;;;;;4803635;29;20073;-87
2022/03/30 11:28:51;;;;;;;4.05;1.60;;;;;;;;;;4804172;29;20050;-87
2022/03/30 11:31:21;;;;;;;1.42;1.30;;;;;;;;;;4793819;29;20930;-87
2022/03/30 11:34:07;;;;;;;1.58;1.30;;;;;;;;;;4804791;29;20054;-87
2022/03/30 11:36:33;;;;;;;3.47;1.60;;;;;;;;;;4805353;29;20463;-87
2022/03/30 11:39:01;;;;;;;4.63;1.48;;;;;;;;;;4802451;29;20133;-87
2022/03/30 11:41:28;;;;;;;1.48;1.38;;;;;;;;;;4791231;29;20066;-86
2022/03/30 11:46:39;;;;;;;3.60;1.58;;;;;;;;;;4826690;29;20027;-85
2022/03/30 11:49:06;;;;;;;1.50;1.40;;;;;;;;;;4808267;29;20054;-86
2022/03/30 11:51:32;;;;;;;3.00;1.50;;;;;;;;;;4808287;29;20043;-87
2022/03/30 11:54:15;;;;;;;2.53;1.33;;;;;;;;;;4805538;29;20054;-87
2022/03/30 11:56:41;;;;;;;4.57;1.60;;;;;;;;;;4781164;29;20452;-86
2022/03/30 11:59:07;;;;;;;1.75;1.40;;;;;;;;;;4806652;29;20062;-86
2022/03/30 12:01:36;;;;;;;2.40;1.40;;;;;;;;;;4799467;29;20086;-86
2022/03/30 12:04:03;;;;;;;2.35;1.40;;;;;;;;;;4808693;29;20054;-85
2022/03/30 12:06:29;;;;;;;2.40;1.55;;;;;;;;;;4807306;29;20072;-86
2022/03/30 12:08:56;;;;;;;3.47;1.40;;;;;;;;;;4791875;29;20492;-86
2022/03/30 12:11:23;;;;;;;3.47;1.60;;;;;;;;;;4791380;29;20058;-87
2022/03/30 12:13:56;;;;;;;1.58;1.30;;;;;;;;;;4792060;29;20046;-87
2022/03/30 12:16:23;;;;;;;1.88;1.60;;;;;;;;;;4802296;29;20124;-86
2022/03/30 12:18:53;;;;;;;1.80;1.42;;;;;;;;;;4788897;29;20043;-86
2022/03/30 12:21:21;;;;;;;3.53;1.40;;;;;;;;;;4807938;29;20092;-86
2022/03/30 12:23:56;;;;;;;2.33;1.30;;;;;;;;;;4791466;29;20129;-86
2022/03/30 12:26:23;;;;;;;2.10;1.30;;;;;;;;;;4807469;29;20108;-86
2022/03/30 12:28:49;;;;;;;4.22;1.63;;;;;;;;;;4790209;29;20133;-86
2022/03/30 12:31:15;;;;;;;2.30;1.48;;;;;;;;;;4789762;29;20047;-86
2022/03/30 12:33:45;;;;;;;4.00;1.52;;;;;;;;;;4819213;29;20051;-86
2022/03/30 12:36:18;;;;;;;3.95;1.40;;;;;;;;;;4805342;29;20081;-86
2022/03/30 12:38:45;;;;;;;3.42;1.50;;;;;;;;;;4791041;29;20059;-86
2022/03/30 12:41:11;;;;;;;5.65;1.60;;;;;;;;;;4798628;29;20496;-87
2022/03/30 12:43:39;;;;;;;3.03;1.20;;;;;;;;;;4791251;29;20507;-82
2022/03/30 12:46:14;;;;;;;3.95;1.30;;;;;;;;;;4797798;29;20086;-85
2022/03/30 12:48:41;;;;;;;4.75;1.80;;;;;;;;;;4817531;29;20062;-86
2022/03/30 12:51:17;;;;;;;4.15;1.80;;;;;;;;;;4792062;29;20054;-86
2022/03/30 12:53:45;;;;;;;2.75;1.50;;;;;;;;;;4807814;29;20357;-87
2022/03/30 12:56:17;;;;;;;2.42;1.48;;;;;;;;;;4806555;29;20062;-86
2022/03/30 12:58:54;;;;;;;3.60;1.60;;;;;;;;;;4808130;29;20164;-86
2022/03/30 13:01:30;;;;;;;4.35;1.60;;;;;;;;;;4788339;29;20055;-86
2022/03/30 13:03:56;;;;;;;3.28;1.30;;;;;;;;;;4805625;29;20609;-85
2022/03/30 13:06:22;;;;;;;4.82;1.50;;;;;;;;;;4804240;29;20086;-86
2022/03/30 13:09:08;;;;;;;4.32;1.52;;;;;;;;;;4789942;29;20115;-87
2022/03/30 13:11:41;;;;;;;3.70;1.50;;;;;;;;;;4805744;29;20058;-86
2022/03/30 13:14:11;;;;;;;2.50;1.38;;;;;;;;;;4806180;29;20442;-85
2022/03/30 13:16:37;;;;;;;3.22;1.88;;;;;;;;;;4806378;29;20046;-85
2022/03/30 13:19:04;;;;;;;2.55;1.40;;;;;;;;;;4792102;29;20138;-85
2022/03/30 13:21:37;;;;;;;6.72;1.52;;;;;;;;;;4807463;29;20476;-85
2022/03/30 13:24:10;;;;;;;2.15;1.30;;;;;;;;;;4805571;29;20085;-85
2022/03/30 13:26:39;;;;;;;2.63;1.45;;;;;;;;;;4807104;29;20066;-86
2022/03/30 13:29:06;;;;;;;4.65;1.50;;;;;;;;;;4813145;29;20484;-85
2022/03/30 13:31:32;;;;;;;6.13;1.60;;;;;;;;;;4809472;29;20072;-86
2022/03/30 13:33:59;;;;;;;2.67;1.38;;;;;;;;;;4810004;29;20133;-85
2022/03/30 13:36:25;;;;;;;3.40;1.48;;;;;;;;;;4806723;29;20069;-85
2022/03/30 13:38:52;;;;;;;2.60;1.40;;;;;;;;;;4803135;29;20396;-85
2022/03/30 13:41:18;;;;;;;3.83;1.85;;;;;;;;;;4802388;29;20059;-85
2022/03/30 13:43:45;;;;;;;4.05;1.83;;;;;;;;;;4799429;29;20112;-85
2022/03/30 13:46:11;;;;;;;2.13;1.70;;;;;;;;;;4791381;29;20082;-85
2022/03/30 13:48:38;;;;;;;3.03;1.30;;;;;;;;;;4791346;29;20437;-85
2022/03/30 13:51:04;;;;;;;1.92;1.30;;;;;;;;;;4795744;29;20047;-85
2022/03/30 13:53:30;;;;;;;3.00;1.40;;;;;;;;;;4790246;30;20074;-86
2022/03/30 13:55:57;;;;;;;2.40;1.38;;;;;;;;;;4789400;30;20451;-85
2022/03/30 13:58:23;;;;;;;2.72;1.35;;;;;;;;;;4790960;29;20400;-85
2022/03/30 14:00:50;;;;;;;1.90;1.50;;;;;;;;;;4789126;29;20053;-85
2022/03/30 14:03:16;;;;;;;2.55;1.40;;;;;;;;;;4790707;29;20070;-85
2022/03/30 14:05:42;;;;;;;2.78;1.63;;;;;;;;;;4804485;29;20103;-86
2022/03/30 14:08:08;;;;;;;1.73;1.30;;;;;;;;;;4789015;29;20051;-85
2022/03/30 14:10:34;;;;;;;4.25;1.75;;;;;;;;;;4804665;29;20047;-86
2022/03/30 14:13:00;;;;;;;2.90;1.30;;;;;;;;;;4807801;29;20066;-85
2022/03/30 14:15:26;;;;;;;2.58;1.40;;;;;;;;;;4795155;29;20214;-86
2022/03/30 14:17:52;;;;;;;2.30;1.45;;;;;;;;;;4806095;29;20130;-85
2022/03/30 14:20:19;;;;;;;3.92;1.60;;;;;;;;;;4786874;29;20108;-86
2022/03/30 14:22:47;;;;;;;4.32;1.50;;;;;;;;;;4788842;29;20055;-85
2022/03/30 14:25:14;;;;;;;2.67;1.40;;;;;;;;;;4803535;29;20053;-86
2022/03/30 14:27:40;;;;;;;1.48;1.38;;;;;;;;;;4804435;29;20515;-86
2022/03/30 14:30:07;;;;;;;2.53;1.27;;;;;;;;;;4788204;29;20051;-84
2022/03/30 14:32:33;;;;;;;3.45;1.35;;;;;;;;;;4805717;29;20038;-85
2022/03/30 14:35:00;;;;;;;2.65;1.85;;;;;;;;;;4804104;29;20122;-86
2022/03/30 14:37:28;;;;;;;4.47;1.88;;;;;;;;;;4788752;29;20749;-86
2022/03/30 14:39:54;;;;;;;6.68;1.60;;;;;;;;;;4785329;29;20340;-85
2022/03/30 14:42:20;;;;;;;2.47;1.60;;;;;;;;;;4788211;29;20050;-86
2022/03/30 14:44:46;;;;;;;3.97;1.75;;;;;;;;;;4805372;29;20047;-85
2022/03/30 14:47:12;;;;;;;2.33;1.40;;;;;;;;;;4804352;29;20381;-85
2022/03/30 14:49:38;;;;;;;3.00;1.40;;;;;;;;;;4804199;29;20046;-85
2022/03/30 14:52:04;;;;;;;2.50;1.40;;;;;;;;;;4787895;29;20108;-84
2022/03/30 14:54:30;;;;;;;1.70;1.38;;;;;;;;;;4786571;29;20051;-85
2022/03/30 14:56:57;;;;;;;3.40;1.60;;;;;;;;;;4787704;29;20055;-84
2022/03/30 14:59:23;;;;;;;1.40;1.30;;;;;;;;;;4803618;29;20579;-85